aviador You're here:

KGEV Decoded Metar

JEFFERSON in NC, USA
Report Time2017-06-24 22:20:00
UTC Time2017-06-24 22:24:31
Flight Rules vfr VFR
Wind290° at 10 Gusting to 16 kt
W.Decomp.*RWY 28: 9.6 kt HW 2.9 kt RCW
W.Rank290° ranks 2
Current wind is below 290° avg. (10.4)
Visibility9999 m
Phenomena:N/A
Clouds:Scattered 039 Hf
Expected CloudBase > 3,600 ft AGL from Temp-Dew spread
CeilingNone
Temp24°C (ISA +15)
Dew Point15°C (57% RH)
AAT22.0°C
QNH1018 hPa
Density Alt5,013 ft
Elevation3,179 ft
Report Wrong Elevation
Raw Report
KGEV 242220Z AUTO 29010G16KT 10SM SCT039 24/15 A3007 RMK AO2
T02440150=

Extra information for KGEV:More info

Metar Taf Metar & Taf Last 4 Metars F.Rules Stats Wind Profile Meteogram Temp Stats Airport Information Weather charts Add Link Nearby VenuesMetar ALERT Operation Metar Decoded Social comments

AIRNAV info for KGEV